Time;durP1;ratioP1;P1;durP2;ratioP2;P2;SDS_P1;SDS_P2;PMS_P1;PMS_P2;Temp;Humidity;BMP_temperature;BMP_pressure;BME280_temperature;BME280_humidity;BME280_pressure;Samples;Min_cycle;Max_cycle;Signal;HPM_P1;HPM_P2
2021/12/20 00:02:13;;;;;;;0.40;0.30;;;;;;;1.77;100.00;101652.19;5035688;28;20524;-69
2021/12/20 00:04:40;;;;;;;0.40;0.30;;;;;;;1.75;100.00;101658.75;5034123;28;20447;-69
2021/12/20 00:07:06;;;;;;;0.40;0.30;;;;;;;1.77;99.33;101646.84;5035674;28;20485;-69
2021/12/20 00:09:34;;;;;;;0.40;0.20;;;;;;;1.71;99.29;101637.00;5035552;28;20443;-69
2021/12/20 00:12:01;;;;;;;0.40;0.30;;;;;;;1.70;98.73;101640.72;5035520;28;20467;-69
2021/12/20 00:14:27;;;;;;;0.40;0.20;;;;;;;1.71;99.00;101639.66;5035510;28;20447;-69
2021/12/20 00:16:53;;;;;;;0.40;0.30;;;;;;;1.67;98.96;101635.78;5035460;28;20834;-69
2021/12/20 00:19:20;;;;;;;0.40;0.20;;;;;;;1.67;98.64;101641.13;5035424;28;20443;-70
2021/12/20 00:21:46;;;;;;;0.40;0.30;;;;;;;1.66;98.25;101634.16;5035300;28;20474;-69
2021/12/20 00:24:13;;;;;;;0.40;0.30;;;;;;;1.66;98.88;101638.69;5035232;28;20450;-69
2021/12/20 00:26:41;;;;;;;0.40;0.30;;;;;;;1.61;99.12;101652.69;5035227;28;20439;-69
2021/12/20 00:29:07;;;;;;;0.40;0.20;;;;;;;1.57;99.67;101661.34;5035172;28;20466;-69
2021/12/20 00:31:34;;;;;;;0.40;0.30;;;;;;;1.58;99.46;101652.28;5035155;28;20447;-69
2021/12/20 00:34:00;;;;;;;0.40;0.20;;;;;;;1.59;99.61;101653.91;5035060;28;20450;-69
2021/12/20 00:36:29;;;;;;;0.40;0.30;;;;;;;1.55;99.64;101656.22;5034932;28;20482;-69
2021/12/20 00:41:41;;;;;;;0.40;0.30;;;;;;;1.64;99.83;101646.91;5034966;28;20411;-69
2021/12/20 00:44:07;;;;;;;0.40;0.30;;;;;;;1.67;99.35;101646.47;5034949;28;20447;-69
2021/12/20 00:46:34;;;;;;;0.40;0.30;;;;;;;1.66;99.14;101662.72;5034905;28;20485;-69
2021/12/20 00:49:00;;;;;;;0.40;0.30;;;;;;;1.63;99.07;101647.94;5034609;28;21131;-69
2021/12/20 00:51:27;;;;;;;0.40;0.30;;;;;;;1.65;99.49;101645.06;5034785;28;20821;-69
2021/12/20 00:53:53;;;;;;;0.40;0.30;;;;;;;1.62;99.03;101661.50;5034676;28;20498;-69
2021/12/20 00:56:20;;;;;;;0.40;0.20;;;;;;;1.60;100.00;101661.72;5034321;28;20478;-69
2021/12/20 00:58:47;;;;;;;0.40;0.30;;;;;;;1.63;100.00;101658.59;5034684;28;20451;-69
2021/12/20 01:01:14;;;;;;;0.40;0.30;;;;;;;1.65;100.00;101653.91;5034617;28;20450;-69
2021/12/20 01:03:41;;;;;;;0.40;0.30;;;;;;;1.63;100.00;101671.97;5034507;28;20478;-69
2021/12/20 01:06:07;;;;;;;0.40;0.30;;;;;;;1.65;99.54;101669.91;5034560;28;20443;-69
2021/12/20 01:08:37;;;;;;;0.40;0.30;;;;;;;1.61;99.22;101663.38;5034507;28;20501;-69
2021/12/20 01:11:04;;;;;;;0.40;0.30;;;;;;;1.63;99.05;101663.13;5034401;28;20500;-69
2021/12/20 01:13:32;;;;;;;0.40;0.30;;;;;;;1.59;99.40;101670.75;5034374;28;20470;-69
2021/12/20 01:16:04;;;;;;;0.40;0.30;;;;;;;1.60;99.08;101683.09;5033903;28;20479;-69
2021/12/20 01:18:30;;;;;;;0.40;0.20;;;;;;;1.56;98.64;101681.88;5034256;28;20448;-69
2021/12/20 01:20:56;;;;;;;0.40;0.30;;;;;;;1.61;98.75;101694.59;5034289;28;20436;-69
2021/12/20 01:23:23;;;;;;;0.40;0.20;;;;;;;1.58;98.70;101690.47;5034241;28;20474;-69
2021/12/20 01:25:50;;;;;;;0.40;0.30;;;;;;;1.58;98.28;101693.16;5034112;28;20450;-69
2021/12/20 01:28:17;;;;;;;0.40;0.30;;;;;;;1.52;98.22;101678.81;5034184;28;20435;-69
2021/12/20 01:30:44;;;;;;;0.40;0.30;;;;;;;1.48;98.77;101677.59;5034106;28;20456;-69
2021/12/20 01:33:13;;;;;;;0.40;0.30;;;;;;;1.51;98.70;101681.72;5034029;28;20466;-69
2021/12/20 01:35:41;;;;;;;0.40;0.30;;;;;;;1.46;99.29;101692.19;5034011;28;20540;-69
2021/12/20 01:38:08;;;;;;;0.40;0.30;;;;;;;1.44;98.85;101683.59;5033915;28;20486;-69
2021/12/20 01:40:35;;;;;;;0.40;0.30;;;;;;;1.46;98.87;101692.19;5033905;28;20477;-69
2021/12/20 01:43:03;;;;;;;0.40;0.30;;;;;;;1.41;98.85;101694.69;5033536;28;20485;-69
2021/12/20 01:45:30;;;;;;;0.40;0.30;;;;;;;1.50;99.54;101696.06;5033837;28;20447;-69
2021/12/20 01:48:05;;;;;;;0.40;0.30;;;;;;;1.52;99.43;101694.03;5033820;28;20474;-69
2021/12/20 01:53:21;;;;;;;0.40;0.30;;;;;;;1.52;98.68;101688.69;5011163;28;20534;-68
2021/12/20 01:55:48;;;;;;;0.40;0.30;;;;;;;1.51;98.53;101690.53;5033645;28;20485;-69
2021/12/20 01:58:15;;;;;;;0.40;0.30;;;;;;;1.50;98.45;101699.56;5033545;28;20902;-69
2021/12/20 02:03:22;;;;;;;0.40;0.30;;;;;;;1.53;98.60;101703.66;5033090;28;20463;-69
2021/12/20 02:05:55;;;;;;;0.40;0.30;;;;;;;1.55;99.05;101709.63;5033173;28;20443;-69
2021/12/20 02:08:23;;;;;;;0.40;0.30;;;;;;;1.57;99.88;101696.03;5033509;28;20513;-69
2021/12/20 02:10:53;;;;;;;0.40;0.30;;;;;;;1.57;99.13;101699.53;5033657;28;20453;-68
2021/12/20 02:13:21;;;;;;;0.40;0.30;;;;;;;1.55;98.44;101692.75;5033332;28;20470;-68
2021/12/20 02:15:47;;;;;;;0.40;0.20;;;;;;;1.52;97.75;101691.34;5033402;28;20438;-68
2021/12/20 02:18:14;;;;;;;0.40;0.20;;;;;;;1.49;97.74;101683.75;5032953;28;20999;-68
2021/12/20 02:20:42;;;;;;;0.40;0.27;;;;;;;1.42;98.05;101691.81;5033306;28;20451;-68
2021/12/20 02:23:09;;;;;;;0.40;0.20;;;;;;;1.45;98.61;101694.03;5033265;28;20463;-68
2021/12/20 02:25:37;;;;;;;0.40;0.30;;;;;;;1.44;98.21;101688.91;5033268;28;20483;-68
2021/12/20 02:28:07;;;;;;;0.40;0.30;;;;;;;1.40;98.21;101688.53;5032548;28;20498;-68
2021/12/20 02:30:48;;;;;;;0.40;0.30;;;;;;;1.38;98.03;101685.25;5033200;28;20447;-68
2021/12/20 02:38:46;;;;;;;0.40;0.30;;;;;;;1.33;98.23;101687.75;5032950;28;20406;-68
2021/12/20 02:41:15;;;;;;;0.40;0.30;;;;;;;1.35;98.50;101674.19;5033150;28;20450;-69
2021/12/20 02:43:43;;;;;;;0.40;0.30;;;;;;;1.33;98.44;101676.22;5032631;28;20483;-68
2021/12/20 02:46:29;;;;;;;0.40;0.30;;;;;;;1.30;98.35;101682.81;5033376;28;20439;-68
2021/12/20 02:48:56;;;;;;;0.40;0.30;;;;;;;1.32;98.45;101686.09;5032798;28;20996;-68
2021/12/20 02:51:26;;;;;;;0.40;0.30;;;;;;;1.34;98.67;101683.22;5033054;28;20443;-68
2021/12/20 02:53:53;;;;;;;0.40;0.30;;;;;;;1.29;98.49;101681.19;5033158;28;20463;-69
2021/12/20 02:56:20;;;;;;;0.40;0.30;;;;;;;1.30;98.81;101687.34;5032989;28;20437;-69
2021/12/20 02:58:46;;;;;;;0.40;0.20;;;;;;;1.30;99.19;101687.34;5032915;28;20487;-69
2021/12/20 03:01:13;;;;;;;0.40;0.30;;;;;;;1.30;99.37;101682.81;5032939;28;20439;-69
2021/12/20 03:03:40;;;;;;;0.40;0.30;;;;;;;1.29;99.02;101693.72;5032594;28;20976;-69
2021/12/20 03:06:13;;;;;;;0.40;0.30;;;;;;;1.27;99.21;101686.72;5032609;28;20940;-69
2021/12/20 03:08:44;;;;;;;0.40;0.30;;;;;;;1.32;98.85;101679.94;5032866;28;20449;-69
2021/12/20 03:11:11;;;;;;;0.40;0.30;;;;;;;1.32;99.25;101685.28;5032912;28;20431;-69
2021/12/20 03:13:37;;;;;;;0.40;0.30;;;;;;;1.27;98.02;101693.91;5032487;28;20979;-69
2021/12/20 03:16:04;;;;;;;0.40;0.30;;;;;;;1.23;98.69;101698.03;5032849;28;20449;-69
2021/12/20 03:18:31;;;;;;;0.40;0.30;;;;;;;1.24;98.48;101689.84;5032747;28;20483;-69
2021/12/20 03:20:57;;;;;;;0.40;0.30;;;;;;;1.25;99.01;101693.31;5032806;28;20454;-69
2021/12/20 03:23:24;;;;;;;0.40;0.30;;;;;;;1.25;99.58;101707.47;5032407;28;20462;-69
2021/12/20 03:25:52;;;;;;;0.40;0.30;;;;;;;1.24;99.65;101710.38;5032752;28;20454;-68
2021/12/20 03:28:18;;;;;;;0.40;0.30;;;;;;;1.29;99.43;101701.72;5032729;28;20442;-68
2021/12/20 03:30:45;;;;;;;0.40;0.30;;;;;;;1.28;100.00;101703.56;5032696;28;20458;-68
2021/12/20 03:33:11;;;;;;;0.40;0.30;;;;;;;1.23;99.59;101712.19;5032624;28;20470;-69
2021/12/20 03:35:38;;;;;;;0.40;0.30;;;;;;;1.29;99.87;101709.75;5032677;28;20438;-69
2021/12/20 03:38:05;;;;;;;0.40;0.30;;;;;;;1.34;99.35;101710.72;5033618;28;20483;-70
2021/12/20 03:40:32;;;;;;;0.40;0.30;;;;;;;1.34;99.49;101705.41;5036186;28;20439;-69
2021/12/20 03:43:00;;;;;;;0.40;0.30;;;;;;;1.30;99.73;101708.69;5035787;28;20537;-69
2021/12/20 03:45:27;;;;;;;0.40;0.30;;;;;;;1.32;99.58;101720.78;5036110;28;20439;-69
2021/12/20 03:47:53;;;;;;;0.40;0.20;;;;;;;1.30;99.78;101725.53;5035747;28;20435;-70
2021/12/20 03:50:20;;;;;;;0.40;0.20;;;;;;;1.29;100.00;101723.09;5035677;28;20945;-69
2021/12/20 03:52:46;;;;;;;0.40;0.30;;;;;;;1.27;100.00;101716.09;5036080;28;20863;-69
2021/12/20 03:55:14;;;;;;;0.40;0.30;;;;;;;1.30;100.00;101724.72;5035628;28;20940;-69
2021/12/20 03:57:40;;;;;;;0.40;0.30;;;;;;;1.26;100.00;101718.97;5035807;28;20483;-69
2021/12/20 04:00:11;;;;;;;0.40;0.30;;;;;;;1.27;100.00;101723.28;5035823;28;20882;-69
2021/12/20 04:02:41;;;;;;;0.40;0.30;;;;;;;1.29;100.00;101721.22;5035371;28;20483;-69
2021/12/20 04:05:08;;;;;;;0.40;0.30;;;;;;;1.27;100.00;101718.75;5035649;28;20439;-69
2021/12/20 04:07:35;;;;;;;0.40;0.30;;;;;;;1.24;100.00;101721.88;5035719;28;20497;-69
2021/12/20 04:10:02;;;;;;;0.40;0.30;;;;;;;1.24;100.00;101721.88;5035322;28;20824;-69
2021/12/20 04:12:28;;;;;;;0.40;0.30;;;;;;;1.22;100.00;101723.91;5035210;28;20517;-69
2021/12/20 04:14:54;;;;;;;0.40;0.23;;;;;;;1.22;99.73;101729.25;5036963;28;20451;-69
2021/12/20 04:17:22;;;;;;;0.40;0.20;;;;;;;1.17;99.73;101718.38;5035215;28;20494;-69
2021/12/20 04:19:49;;;;;;;0.40;0.23;;;;;;;1.06;100.00;101724.34;5035506;28;20852;-69
2021/12/20 04:22:18;;;;;;;0.40;0.30;;;;;;;1.04;100.00;101721.09;5035368;28;20470;-69
2021/12/20 04:24:44;;;;;;;0.40;0.30;;;;;;;1.03;100.00;101715.97;5035102;28;20830;-69
2021/12/20 04:27:11;;;;;;;0.40;0.30;;;;;;;0.97;100.00;101729.13;5035399;28;20431;-69
2021/12/20 04:29:38;;;;;;;0.40;0.30;;;;;;;0.95;100.00;101733.03;5035297;28;20447;-69
2021/12/20 04:32:05;;;;;;;0.40;0.30;;;;;;;0.97;100.00;101722.94;5034862;28;20466;-68
2021/12/20 04:34:33;;;;;;;0.40;0.30;;;;;;;0.99;100.00;101729.72;5035179;28;20455;-69
2021/12/20 04:36:59;;;;;;;0.40;0.30;;;;;;;0.98;100.00;101729.94;5035035;28;20451;-69
2021/12/20 04:39:30;;;;;;;0.40;0.30;;;;;;;0.96;100.00;101719.47;5035342;28;20435;-69
2021/12/20 04:41:56;;;;;;;0.40;0.30;;;;;;;0.96;100.00;101730.13;5035012;28;20497;-69
2021/12/20 04:44:23;;;;;;;0.40;0.20;;;;;;;0.92;100.00;101734.25;5035078;28;20854;-69
2021/12/20 04:46:49;;;;;;;0.40;0.30;;;;;;;0.86;100.00;101740.41;5034966;28;20438;-69
2021/12/20 04:49:16;;;;;;;0.40;0.30;;;;;;;0.85;100.00;101736.13;5034279;28;20502;-69
2021/12/20 04:51:44;;;;;;;0.40;0.30;;;;;;;0.90;100.00;101740.84;5034736;28;20443;-69
2021/12/20 04:54:11;;;;;;;0.40;0.30;;;;;;;0.92;100.00;101742.25;5034817;28;20439;-69
2021/12/20 04:56:37;;;;;;;0.40;0.30;;;;;;;0.92;100.00;101733.44;5034427;28;20948;-69
2021/12/20 04:59:04;;;;;;;0.40;0.30;;;;;;;0.92;100.00;101738.75;5034621;28;20498;-68
2021/12/20 05:01:30;;;;;;;0.40;0.30;;;;;;;0.91;100.00;101734.47;5034359;28;20857;-68
2021/12/20 05:03:57;;;;;;;0.40;0.30;;;;;;;0.91;100.00;101734.47;5034558;28;20471;-68
2021/12/20 05:06:23;;;;;;;0.40;0.30;;;;;;;0.83;100.00;101732.00;5034284;28;20497;-68
2021/12/20 05:08:54;;;;;;;0.40;0.30;;;;;;;0.86;100.00;101723.59;5034596;28;20439;-68
2021/12/20 05:11:21;;;;;;;0.40;0.20;;;;;;;0.85;100.00;101732.63;5034552;28;20501;-68
2021/12/20 05:13:48;;;;;;;0.40;0.30;;;;;;;0.84;100.00;101730.97;5034369;28;20462;-68
2021/12/20 05:16:14;;;;;;;0.40;0.30;;;;;;;0.85;100.00;101735.31;5034400;28;20490;-69
2021/12/20 05:18:41;;;;;;;0.40;0.30;;;;;;;0.85;100.00;101729.97;5034345;28;20479;-68
2021/12/20 05:21:07;;;;;;;0.40;0.30;;;;;;;0.89;100.00;101740.00;5034280;28;20454;-69
2021/12/20 05:23:34;;;;;;;0.40;0.30;;;;;;;0.93;100.00;101748.41;5033871;28;20988;-69
2021/12/20 05:26:02;;;;;;;0.40;0.30;;;;;;;0.92;100.00;101752.09;5034177;28;20540;-67
2021/12/20 05:28:28;;;;;;;0.40;0.20;;;;;;;0.93;100.00;101751.06;5034202;28;20439;-68
2021/12/20 05:30:55;;;;;;;0.40;0.20;;;;;;;0.92;100.00;101758.25;5034164;28;20447;-68
2021/12/20 05:33:22;;;;;;;0.40;0.30;;;;;;;0.86;100.00;101758.28;5033986;28;20451;-68
2021/12/20 05:35:48;;;;;;;0.40;0.30;;;;;;;0.89;100.00;101757.88;5034036;28;20454;-68
2021/12/20 05:38:14;;;;;;;0.40;0.30;;;;;;;0.90;100.00;101756.84;5033611;28;21004;-67
2021/12/20 05:40:41;;;;;;;0.40;0.20;;;;;;;0.86;100.00;101761.75;5033348;28;20945;-68
2021/12/20 05:43:09;;;;;;;0.40;0.30;;;;;;;0.89;100.00;101760.53;5033310;28;20475;-68
2021/12/20 05:45:36;;;;;;;0.40;0.30;;;;;;;0.91;100.00;101758.47;5033853;28;20447;-68
2021/12/20 05:48:03;;;;;;;0.40;0.30;;;;;;;0.89;100.00;101763.19;5033985;28;20493;-70
2021/12/20 05:50:30;;;;;;;0.40;0.20;;;;;;;0.89;100.00;101757.88;5033744;28;20467;-68
2021/12/20 05:52:56;;;;;;;0.40;0.30;;;;;;;0.89;100.00;101765.88;5033758;28;20458;-68
2021/12/20 05:55:23;;;;;;;0.40;0.20;;;;;;;0.85;100.00;101765.47;5033599;28;20456;-68
2021/12/20 05:57:49;;;;;;;0.40;0.30;;;;;;;0.86;100.00;101766.28;5033611;28;20479;-68
2021/12/20 06:00:19;;;;;;;0.40;0.30;;;;;;;0.93;100.00;101778.59;5033841;28;20439;-68
2021/12/20 06:02:48;;;;;;;0.40;0.30;;;;;;;0.98;100.00;101776.09;5033745;28;20492;-69
2021/12/20 06:05:15;;;;;;;0.40;0.30;;;;;;;0.98;100.00;101780.63;5033548;28;20497;-68
2021/12/20 06:07:43;;;;;;;0.40;0.30;;;;;;;0.99;100.00;101782.25;5033483;28;20810;-69
2021/12/20 06:10:12;;;;;;;0.40;0.30;;;;;;;1.04;100.00;101785.13;5032945;28;20449;-68
2021/12/20 06:12:39;;;;;;;0.40;0.20;;;;;;;1.03;100.00;101788.81;5033046;28;20470;-69
2021/12/20 06:15:07;;;;;;;0.40;0.30;;;;;;;1.01;100.00;101790.84;5033020;28;20830;-69
2021/12/20 06:17:35;;;;;;;0.40;0.30;;;;;;;0.88;100.00;101788.22;5033285;28;20462;-68
2021/12/20 06:20:02;;;;;;;0.40;0.30;;;;;;;0.95;100.00;101781.03;5033264;28;20480;-68
2021/12/20 06:22:29;;;;;;;0.40;0.30;;;;;;;0.96;100.00;101794.16;5033248;28;20476;-68
2021/12/20 06:24:55;;;;;;;0.40;0.30;;;;;;;0.94;100.00;101787.41;5033355;28;20455;-68
2021/12/20 06:27:22;;;;;;;0.40;0.30;;;;;;;0.93;100.00;101789.25;5033132;28;20945;-68
2021/12/20 06:29:48;;;;;;;0.40;0.30;;;;;;;1.00;100.00;101783.88;5033205;28;20443;-68
2021/12/20 06:32:14;;;;;;;0.40;0.30;;;;;;;1.01;100.00;101785.53;5033122;28;20474;-68
2021/12/20 06:34:42;;;;;;;0.40;0.30;;;;;;;1.03;100.00;101791.50;5033127;28;20443;-68
2021/12/20 06:37:10;;;;;;;0.40;0.30;;;;;;;1.04;100.00;101790.44;5033374;28;20464;-68
2021/12/20 06:39:37;;;;;;;0.40;0.30;;;;;;;1.05;100.00;101792.09;5032877;28;20490;-68
2021/12/20 06:42:04;;;;;;;0.40;0.30;;;;;;;1.04;100.00;101790.44;5032843;28;20537;-68
2021/12/20 06:44:30;;;;;;;0.40;0.30;;;;;;;1.04;100.00;101785.13;5033158;28;20423;-68
2021/12/20 06:46:57;;;;;;;0.40;0.30;;;;;;;1.06;100.00;101788.38;5033134;28;20442;-68
2021/12/20 06:49:23;;;;;;;0.40;0.30;;;;;;;1.09;100.00;101790.66;5033117;28;20435;-68
2021/12/20 06:51:53;;;;;;;0.40;0.30;;;;;;;1.13;100.00;101805.22;5032991;28;20446;-68
2021/12/20 06:54:20;;;;;;;0.40;0.30;;;;;;;1.03;100.00;101794.16;5032691;28;21018;-68
2021/12/20 06:56:47;;;;;;;0.40;0.30;;;;;;;1.04;100.00;101789.63;5032995;28;20482;-68
2021/12/20 06:59:13;;;;;;;0.40;0.30;;;;;;;1.11;100.00;101793.13;5032936;28;20901;-69
2021/12/20 07:01:41;;;;;;;214.27;10.00;;;;;;;1.18;100.00;101801.91;5032858;28;20493;-69
2021/12/20 07:04:08;;;;;;;0.40;0.20;;;;;;;1.21;100.00;101802.31;5032618;28;20501;-69
2021/12/20 07:06:34;;;;;;;0.40;0.20;;;;;;;1.21;100.00;101802.31;5032858;28;20493;-69
2021/12/20 07:09:03;;;;;;;0.40;0.20;;;;;;;1.22;100.00;101803.97;5032844;28;20443;-69
2021/12/20 07:11:29;;;;;;;0.40;0.30;;;;;;;1.23;100.00;101816.25;5032832;28;20443;-69
2021/12/20 07:13:55;;;;;;;0.40;0.20;;;;;;;1.28;100.00;101810.31;5035228;28;20463;-69
2021/12/20 07:16:22;;;;;;;0.40;0.30;;;;;;;1.26;100.00;101810.53;5036677;28;20442;-69
2021/12/20 07:18:49;;;;;;;0.40;0.30;;;;;;;1.31;100.00;101811.75;5036531;28;20479;-69
2021/12/20 07:21:17;;;;;;;0.40;0.30;;;;;;;1.32;100.00;101810.72;5036534;28;20447;-69
2021/12/20 07:23:43;;;;;;;0.40;0.30;;;;;;;1.35;100.00;101816.47;5036475;28;20566;-69
2021/12/20 07:26:12;;;;;;;0.40;0.30;;;;;;;1.35;100.00;101828.97;5036414;28;20443;-69
2021/12/20 07:28:41;;;;;;;0.40;0.30;;;;;;;1.38;100.00;101837.41;5036436;28;20439;-69
2021/12/20 07:31:07;;;;;;;0.40;0.30;;;;;;;1.44;100.00;101835.75;5036342;28;20474;-68
2021/12/20 07:33:34;;;;;;;0.40;0.30;;;;;;;1.47;100.00;101828.13;5036253;28;20470;-69
2021/12/20 07:36:00;;;;;;;0.40;0.27;;;;;;;1.43;100.00;101836.78;5036275;28;20810;-69
2021/12/20 07:38:27;;;;;;;0.40;0.30;;;;;;;1.43;100.00;101829.59;5035871;28;21003;-69
2021/12/20 07:40:54;;;;;;;0.40;0.30;;;;;;;1.44;100.00;101841.06;5036217;28;20439;-69
2021/12/20 07:43:22;;;;;;;0.40;0.30;;;;;;;1.47;99.93;101843.34;5035703;28;21046;-69
2021/12/20 07:45:48;;;;;;;0.40;0.20;;;;;;;1.43;100.00;101845.59;5036254;28;20865;-69
2021/12/20 07:48:15;;;;;;;0.40;0.30;;;;;;;1.40;99.32;101851.34;5036023;28;20450;-69
2021/12/20 07:50:42;;;;;;;0.40;0.30;;;;;;;1.42;99.56;101865.31;5035707;28;20820;-69
2021/12/20 07:53:08;;;;;;;0.40;0.30;;;;;;;1.36;99.72;101857.31;5035839;28;20470;-68
2021/12/20 07:55:35;;;;;;;0.40;0.20;;;;;;;1.39;99.49;101856.91;5035940;28;20443;-68
2021/12/20 07:58:02;;;;;;;0.40;0.20;;;;;;;1.37;100.00;101864.28;5035768;28;20442;-69
2021/12/20 08:00:30;;;;;;;0.40;0.30;;;;;;;1.33;99.83;101871.06;5035786;28;20439;-68
2021/12/20 08:02:57;;;;;;;0.40;0.30;;;;;;;1.37;100.00;101864.28;5035713;28;20463;-69
2021/12/20 08:05:24;;;;;;;0.40;0.30;;;;;;;1.39;99.96;101859.56;5035763;28;20491;-68
2021/12/20 08:07:51;;;;;;;0.40;0.30;;;;;;;1.43;99.78;101868.81;5035700;28;20431;-67
2021/12/20 08:10:19;;;;;;;0.40;0.30;;;;;;;1.40;99.92;101867.34;5035622;28;20439;-67
2021/12/20 08:12:46;;;;;;;0.40;0.30;;;;;;;1.43;99.59;101868.81;5035540;28;20473;-70
2021/12/20 08:15:13;;;;;;;0.40;0.20;;;;;;;1.40;99.19;101886.03;5035547;28;20442;-67
2021/12/20 08:17:41;;;;;;;0.40;0.30;;;;;;;1.37;99.44;101872.28;5035497;28;20453;-67
2021/12/20 08:20:10;;;;;;;0.40;0.30;;;;;;;1.43;99.64;101871.47;5035301;28;20490;-67
2021/12/20 08:22:36;;;;;;;0.40;0.27;;;;;;;1.35;99.62;101883.19;5035361;28;20470;-67
2021/12/20 08:25:04;;;;;;;0.40;0.30;;;;;;;1.36;99.97;101886.66;5034210;28;20431;-67
2021/12/20 08:27:31;;;;;;;0.40;0.30;;;;;;;1.40;99.65;101877.22;5035032;28;20505;-67
2021/12/20 08:29:58;;;;;;;0.40;0.30;;;;;;;1.38;99.94;101882.78;5035054;28;20813;-67
2021/12/20 08:32:25;;;;;;;0.40;0.20;;;;;;;1.45;99.91;101888.91;5035178;28;20456;-67
2021/12/20 08:34:53;;;;;;;0.40;0.30;;;;;;;1.51;99.73;101898.78;5035262;28;20439;-66
2021/12/20 08:37:19;;;;;;;0.40;0.20;;;;;;;1.52;99.34;101894.25;5035104;28;20451;-67
2021/12/20 08:39:45;;;;;;;0.40;0.20;;;;;;;1.54;99.53;101892.19;5035271;28;20483;-67
2021/12/20 08:42:12;;;;;;;0.40;0.27;;;;;;;1.57;99.75;101893.63;5034845;28;20474;-67
2021/12/20 08:44:39;;;;;;;0.40;0.30;;;;;;;1.57;99.99;101899.78;5035012;28;20443;-67
2021/12/20 08:47:06;;;;;;;0.40;0.20;;;;;;;1.59;100.00;101897.72;5034944;28;20442;-67
2021/12/20 08:49:33;;;;;;;0.40;0.30;;;;;;;1.66;100.00;101893.19;5034954;28;20447;-67
2021/12/20 08:52:01;;;;;;;0.40;0.20;;;;;;;1.69;99.95;101895.44;5034846;28;20862;-67
2021/12/20 08:54:29;;;;;;;0.40;0.20;;;;;;;1.72;100.00;101904.88;5034867;28;20439;-66
2021/12/20 08:56:55;;;;;;;0.40;0.20;;;;;;;1.70;99.96;101909.63;5035068;28;20443;-67
2021/12/20 08:59:22;;;;;;;0.40;0.30;;;;;;;1.75;100.00;101910.63;5034687;28;20490;-67
2021/12/20 09:01:49;;;;;;;0.40;0.30;;;;;;;1.84;99.73;101910.41;5034634;28;20435;-67
2021/12/20 09:04:16;;;;;;;0.40;0.30;;;;;;;1.83;99.82;101911.44;5034663;28;20450;-67
2021/12/20 09:06:43;;;;;;;0.40;0.30;;;;;;;1.80;99.77;101912.66;5034628;28;20446;-66
2021/12/20 09:09:14;;;;;;;0.40;0.20;;;;;;;1.88;99.91;101916.97;5034570;28;20455;-68
2021/12/20 09:11:42;;;;;;;0.40;0.30;;;;;;;1.93;99.45;101919.81;5034025;28;20431;-67
2021/12/20 09:14:08;;;;;;;0.40;0.20;;;;;;;1.98;99.58;101918.16;5033819;28;20451;-68
2021/12/20 09:16:35;;;;;;;0.40;0.27;;;;;;;2.00;99.01;101928.66;5033480;28;20446;-67
2021/12/20 09:19:02;;;;;;;0.40;0.20;;;;;;;1.99;98.59;101924.31;5033402;28;20494;-67
2021/12/20 09:21:29;;;;;;;0.40;0.30;;;;;;;1.96;98.16;101928.25;5033844;28;20451;-67
2021/12/20 09:23:56;;;;;;;0.40;0.30;;;;;;;1.99;97.84;101929.66;5033332;28;20848;-67
2021/12/20 09:26:24;;;;;;;0.40;0.30;;;;;;;1.99;99.29;101933.19;5033578;28;20489;-67
2021/12/20 09:28:50;;;;;;;0.40;0.30;;;;;;;2.07;98.27;101942.78;5033582;28;20796;-67
2021/12/20 09:31:17;;;;;;;0.40;0.20;;;;;;;2.08;97.76;101941.78;5033494;28;20526;-67
2021/12/20 09:33:43;;;;;;;0.40;0.30;;;;;;;2.08;97.63;101941.78;5033285;28;20524;-67
2021/12/20 09:36:10;;;;;;;0.40;0.20;;;;;;;2.12;97.69;101944.81;5032983;28;20442;-67
2021/12/20 09:38:36;;;;;;;0.40;0.20;;;;;;;2.09;97.15;101953.28;5033377;28;20446;-67
2021/12/20 09:41:17;;;;;;;0.40;0.30;;;;;;;2.07;96.84;101961.50;5033332;28;20471;-67
2021/12/20 09:43:48;;;;;;;0.40;0.30;;;;;;;2.06;96.99;101961.72;5033136;28;20518;-67
2021/12/20 09:46:16;;;;;;;0.40;0.30;;;;;;;2.03;97.07;101952.25;5033267;28;20485;-67
2021/12/20 09:48:45;;;;;;;0.40;0.30;;;;;;;2.07;96.80;101956.16;5033293;28;20436;-67
2021/12/20 09:51:13;;;;;;;0.40;0.20;;;;;;;2.04;97.00;101961.94;5033091;28;20450;-67
2021/12/20 09:53:40;;;;;;;0.40;0.30;;;;;;;2.07;97.49;101964.16;5033185;28;20463;-67
2021/12/20 09:56:07;;;;;;;0.40;0.30;;;;;;;2.14;97.28;101964.97;5033052;28;20469;-67
2021/12/20 09:58:36;;;;;;;0.40;0.30;;;;;;;2.14;97.17;101967.66;5033111;28;20431;-67
2021/12/20 10:01:07;;;;;;;0.40;0.30;;;;;;;2.20;97.01;101965.97;5032830;28;20483;-67
2021/12/20 10:03:34;;;;;;;0.40;0.20;;;;;;;2.24;96.86;101965.34;5033067;28;20882;-67
2021/12/20 10:06:00;;;;;;;0.40;0.20;;;;;;;2.25;96.54;101961.63;5032588;28;20463;-67
2021/12/20 10:08:32;;;;;;;0.40;0.30;;;;;;;2.32;96.15;101968.81;5032464;28;20983;-66
2021/12/20 10:11:00;;;;;;;0.40;0.30;;;;;;;2.32;96.53;101968.81;5031935;28;20444;-67
2021/12/20 10:13:29;;;;;;;0.40;0.20;;;;;;;2.35;96.58;101974.56;5033035;28;20474;-67
2021/12/20 10:15:57;;;;;;;0.40;0.27;;;;;;;2.39;96.49;101973.13;5032532;28;20936;-67
2021/12/20 10:18:26;;;;;;;0.40;0.20;;;;;;;2.40;96.20;101977.44;5032762;28;20443;-67
2021/12/20 10:20:55;;;;;;;0.40;0.30;;;;;;;2.44;96.07;101967.97;5032590;28;21004;-67
2021/12/20 10:23:24;;;;;;;0.40;0.20;;;;;;;2.37;95.96;101979.69;5032632;28;20466;-67
2021/12/20 10:25:53;;;;;;;0.40;0.20;;;;;;;2.43;96.66;101982.34;5032664;28;20439;-67
2021/12/20 10:28:22;;;;;;;0.40;0.30;;;;;;;2.48;96.50;101974.53;5032633;28;20530;-67
2021/12/20 10:30:50;;;;;;;0.40;0.27;;;;;;;2.52;96.45;101973.06;5032641;28;20466;-68
2021/12/20 10:33:19;;;;;;;0.40;0.20;;;;;;;2.56;96.36;101976.09;5032339;28;20517;-67
2021/12/20 10:35:49;;;;;;;0.40;0.20;;;;;;;2.61;96.73;101967.44;5032226;28;20917;-67
2021/12/20 10:38:25;;;;;;;0.40;0.30;;;;;;;2.44;95.84;101983.19;5032578;28;20451;-68
2021/12/20 10:40:55;;;;;;;0.40;0.20;;;;;;;2.50;96.35;101975.13;5032621;28;20459;-67
2021/12/20 10:43:24;;;;;;;0.40;0.30;;;;;;;2.62;96.17;101975.28;5032023;28;21010;-67
2021/12/20 10:45:52;;;;;;;0.40;0.30;;;;;;;2.69;96.43;101980.56;5032246;28;20773;-67
2021/12/20 10:48:19;;;;;;;0.40;0.30;;;;;;;2.77;95.77;101993.72;5034018;28;20447;-67
2021/12/20 10:50:47;;;;;;;0.40;0.20;;;;;;;2.83;95.76;101984.00;5036557;28;20442;-67
2021/12/20 10:53:17;;;;;;;0.40;0.20;;;;;;;2.90;95.09;101984.78;5036439;28;20467;-67
2021/12/20 10:55:46;;;;;;;0.40;0.30;;;;;;;2.92;94.94;101988.91;5036557;28;20489;-67
2021/12/20 10:58:34;;;;;;;0.40;0.20;;;;;;;2.94;94.80;101989.50;5036367;28;20450;-67
2021/12/20 11:01:36;;;;;;;0.40;0.20;;;;;;;3.00;94.85;101977.91;5036495;28;20463;-67
2021/12/20 11:04:06;;;;;;;0.40;0.20;;;;;;;3.07;94.51;101983.25;5036196;28;20510;-67
2021/12/20 11:06:57;;;;;;;0.40;0.30;;;;;;;3.08;93.97;101979.53;5036181;28;20478;-68
2021/12/20 11:09:26;;;;;;;0.40;0.27;;;;;;;3.04;94.85;101976.44;5036545;28;20427;-67
2021/12/20 11:11:54;;;;;;;0.40;0.30;;;;;;;3.14;94.18;101975.97;5036102;28;20454;-67
2021/12/20 11:14:23;;;;;;;0.40;0.20;;;;;;;3.19;93.80;101980.69;5036071;28;20447;-67
2021/12/20 11:16:51;;;;;;;0.40;0.30;;;;;;;3.24;93.60;101980.88;5036306;28;20859;-67
2021/12/20 11:19:26;;;;;;;0.40;0.20;;;;;;;3.32;93.68;101979.75;5035952;28;20451;-67
2021/12/20 11:22:00;;;;;;;0.40;0.30;;;;;;;3.42;93.32;101972.06;5035877;28;20439;-67
2021/12/20 11:24:31;;;;;;;0.40;0.20;;;;;;;3.51;93.65;101973.44;5035912;28;20431;-67
2021/12/20 11:26:59;;;;;;;0.40;0.23;;;;;;;3.62;93.05;101966.53;5036863;28;20435;-67
2021/12/20 11:29:26;;;;;;;0.40;0.20;;;;;;;3.62;91.79;101975.38;5035773;28;20450;-67
2021/12/20 11:31:54;;;;;;;0.40;0.20;;;;;;;3.61;91.53;101967.56;5035747;28;20447;-67
2021/12/20 11:34:22;;;;;;;0.40;0.30;;;;;;;3.71;91.78;101971.38;5035995;28;20443;-68
2021/12/20 11:36:49;;;;;;;0.40;0.20;;;;;;;3.82;91.56;101983.25;5035663;28;20428;-68
2021/12/20 11:39:17;;;;;;;0.40;0.30;;;;;;;3.88;92.04;101978.84;5035567;28;20439;-67
2021/12/20 11:41:43;;;;;;;0.40;0.30;;;;;;;4.20;91.70;101980.34;5035218;28;20866;-67
2021/12/20 11:44:14;;;;;;;0.40;0.30;;;;;;;4.51;88.48;101979.34;5035581;28;20431;-67
2021/12/20 11:46:51;;;;;;;0.40;0.20;;;;;;;4.87;87.55;101977.66;5035757;28;20423;-66